Tofte, Minnesota
Current Conditions -  °F | °C
As of 8:21 AM on Friday 31 Oct 2014 (Local Time) from KCKC Reporting Station
Scattered Clouds Scattered Clouds  
Wind Chill: -10°   Ceiling: Unl
Heat Index: -6°   Visibility: 10mi
Dew Point: -10°   Wind: 5mph
Humidity: 74%   Direction: 340°NNW
Pressure: 30.45"   Gusts: NA
Location:  47.57°N, 90.84°W
Report Text: KCKC 311321Z AUTO 34004KT 10SM SCT024 M06/M10 A3045 RMK AO2
Loading
Personal Weather Stations






























Interactive Weather Map
Tropical Storm Tracking
New forecast layout! Learn more

10-Day Weather Forecast

Advertisements
Track Severe Weather on mobile